Terminal Aerodrome Forecast
Issued by NWS

Home | Current Version | Previous Version | Text Only | Print | Product List | Glossary On
Versions: 1 2 3 4 5 6 7 8 9 10 11 12 13 14 15 16 17 18 19 20 21 22 23 24 25 26 27 28 29 30 31 32 33
000
FTUS41 KRNK 261120
TAFBCB
TAF
KBCB 261120Z 2612/2712 04003KT 2SM -SN SCT008 OVC012
      TEMPO 2612/2616 1/2SM SN FG OVC005
     FM261900 32006KT 5SM BR BKN005 OVC012
     FM262300 27003KT P6SM BKN015 OVC040
     FM270900 VRB03KT 4SM -SHSN BR SCT015 OVC045=

USA.gov is the U.S. government's official web portal to all federal, state and local government web resources and services.